TAF EHJA
METAR EHJA
EHJA 090625Z AUTO 23017KT //// // FEW008/// SCT012/// BKN023/// 08/04 Q0998 RE//=
EHJA 090555Z AUTO 23013KT 180V250 //// // FEW007/// SCT010/// BKN019/// 07/05 Q0996 RE//=
EHJA 090525Z AUTO 21015KT //// // FEW007/// SCT009/// BKN017/// 07/05 Q0996 RE//=
EHJA 090455Z AUTO 21015KT //// // FEW009/// BKN010/// BKN014/// 07/04 Q0996 RE//=
EHJA 090425Z AUTO 20015KT //// // FEW008/// SCT010/// BKN012/// 07/04 Q0996 RE//=
WC EHJA
WS EHJA
WV EHJA